Time;durP1;ratioP1;P1;durP2;ratioP2;P2;SDS_P1;SDS_P2;PMS_P1;PMS_P2;Temp;Humidity;BMP_temperature;BMP_pressure;BME280_temperature;BME280_humidity;BME280_pressure;Samples;Min_cycle;Max_cycle;Signal;HPM_P1;HPM_P2
2023/10/18 00:00:28;;;;;;;25.10;14.90;;;;;;;-146.25;100.00;52447.28;2079452;28;34335;-72
2023/10/18 00:01:30;;;;;;;26.33;14.75;;;;;;;-146.25;100.00;52384.41;2080127;28;35361;-72
2023/10/18 00:02:32;;;;;;;24.35;14.85;;;;;;;-146.25;100.00;52404.69;2087054;28;33561;-72
2023/10/18 00:03:36;;;;;;;25.90;15.55;;;;;;;-146.25;100.00;52398.59;2086993;28;35320;-72
2023/10/18 00:04:38;;;;;;;21.48;15.00;;;;;;;-146.25;100.00;52453.34;2079363;28;34494;-72
2023/10/18 00:05:41;;;;;;;20.58;14.32;;;;;;;-146.25;100.00;52422.94;2087932;28;20904;-72
2023/10/18 00:06:47;;;;;;;23.85;14.32;;;;;;;-146.25;100.00;52435.09;2086373;28;37309;-71
2023/10/18 00:07:57;;;;;;;30.70;15.68;;;;;;;-146.25;100.00;52410.78;2079659;28;32445;-72
2023/10/18 00:09:32;;;;;;;25.38;15.95;;;;;;;-146.25;100.00;52420.91;2086228;28;35334;-71
2023/10/18 00:10:21;;;;;;;25.55;15.63;;;;;;;-146.25;100.00;52441.19;2084644;28;39670;-72
2023/10/18 00:11:25;;;;;;;25.52;14.93;;;;;;;-146.25;100.00;52424.97;2079867;28;20896;-72
2023/10/18 00:12:33;;;;;;;28.08;15.88;;;;;;;-146.25;100.00;52445.25;2086950;28;35547;-72
2023/10/18 00:13:36;;;;;;;21.40;14.35;;;;;;;-146.25;100.00;52418.88;2085825;28;32182;-71
2023/10/18 00:14:40;;;;;;;24.20;14.68;;;;;;;-146.25;100.00;52447.28;2086973;28;34478;-72
2023/10/18 00:15:43;;;;;;;27.83;15.25;;;;;;;-146.25;100.00;52437.13;2086960;28;20099;-71
2023/10/18 00:16:45;;;;;;;22.75;15.43;;;;;;;-146.25;100.00;52443.22;2078373;28;36088;-72
2023/10/18 00:17:48;;;;;;;21.85;14.68;;;;;;;-146.25;100.00;52418.88;2079691;28;31633;-72
2023/10/18 00:18:50;;;;;;;27.13;15.75;;;;;;;-146.25;100.00;52396.59;2087629;28;33786;-72
2023/10/18 00:19:52;;;;;;;22.63;15.38;;;;;;;-146.25;100.00;52433.06;2087014;28;34046;-72
2023/10/18 00:21:04;;;;;;;24.17;15.68;;;;;;;-146.25;100.00;52429.03;2087758;28;20073;-72
2023/10/18 00:22:09;;;;;;;28.05;14.73;;;;;;;-146.25;100.00;52447.28;2087417;28;37820;-72
2023/10/18 00:23:11;;;;;;;27.73;15.32;;;;;;;-146.25;100.00;52437.13;2086809;28;31556;-71
2023/10/18 00:24:13;;;;;;;26.35;14.80;;;;;;;-146.25;100.00;52427.00;2086854;28;36517;-71
2023/10/18 00:25:16;;;;;;;24.98;14.95;;;;;;;-146.25;100.00;52445.25;2087111;28;20041;-72
2023/10/18 00:26:18;;;;;;;22.65;14.15;;;;;;;-146.25;100.00;52398.59;2079274;28;36945;-71
2023/10/18 00:27:25;;;;;;;28.92;15.77;;;;;;;-146.25;100.00;52412.81;2087386;28;20939;-71
2023/10/18 00:28:27;;;;;;;24.77;15.32;;;;;;;-146.25;100.00;52461.47;2087692;28;20045;-71
2023/10/18 00:29:34;;;;;;;23.13;14.52;;;;;;;-146.25;100.00;52422.94;2079214;28;20470;-71
2023/10/18 00:30:36;;;;;;;21.77;15.00;;;;;;;-146.25;100.00;52424.97;2079936;28;20045;-71
2023/10/18 00:31:38;;;;;;;22.70;14.45;;;;;;;-146.25;100.00;52439.16;2087476;28;20867;-71
2023/10/18 00:32:44;;;;;;;21.77;14.45;;;;;;;-146.25;100.00;52410.78;2079960;28;20168;-73
2023/10/18 00:33:48;;;;;;;24.92;15.85;;;;;;;-146.25;100.00;52384.41;2087807;28;20079;-70
2023/10/18 00:34:54;;;;;;;24.48;13.95;;;;;;;-146.25;100.00;52400.63;2086947;28;28155;-70
2023/10/18 00:35:57;;;;;;;24.73;15.63;;;;;;;-146.25;100.00;52445.25;2086734;28;27699;-70
2023/10/18 00:36:59;;;;;;;23.20;14.73;;;;;;;-146.25;100.00;52429.03;2087409;28;20038;-70
2023/10/18 00:38:03;;;;;;;25.17;15.30;;;;;;;-146.25;100.00;52427.00;2087554;28;20045;-71
2023/10/18 00:41:37;;;;;;;26.13;14.98;;;;;;;-146.25;100.00;52433.06;2079842;28;20144;-70
2023/10/18 00:42:39;;;;;;;23.30;14.93;;;;;;;-146.25;100.00;52433.06;2086774;28;26672;-70
2023/10/18 00:43:45;;;;;;;23.73;15.45;;;;;;;-146.25;100.00;52437.13;2087082;28;35480;-71
2023/10/18 00:44:54;;;;;;;24.20;16.42;;;;;;;-146.25;100.00;52471.59;2086338;28;32421;-71
2023/10/18 00:45:56;;;;;;;21.23;15.15;;;;;;;-146.25;100.00;52441.19;2080608;28;20045;-70
2023/10/18 00:47:00;;;;;;;26.60;15.90;;;;;;;-146.25;100.00;52400.63;2087081;28;20046;-71
2023/10/18 00:48:05;;;;;;;27.33;16.75;;;;;;;-146.25;100.00;52402.66;2087292;28;27617;-70
2023/10/18 00:49:14;;;;;;;19.83;15.23;;;;;;;-146.25;100.00;52453.34;2087252;28;29959;-71
2023/10/18 00:50:27;;;;;;;26.10;15.07;;;;;;;-146.25;100.00;52435.09;2087192;28;26378;-71
2023/10/18 00:51:29;;;;;;;17.38;13.88;;;;;;;-146.25;100.00;52431.06;2078564;28;28400;-71
2023/10/18 00:52:32;;;;;;;23.08;15.35;;;;;;;-146.25;100.00;52388.47;2078830;28;29125;-69
2023/10/18 00:53:37;;;;;;;20.17;14.80;;;;;;;-146.25;100.00;52433.06;2087201;28;29369;-71
2023/10/18 00:54:39;;;;;;;25.25;14.88;;;;;;;-146.25;100.00;52392.53;2086774;28;24851;-70
2023/10/18 00:55:41;;;;;;;21.40;15.35;;;;;;;-146.25;100.00;52414.84;2078532;28;34266;-71
2023/10/18 00:56:46;;;;;;;26.23;15.10;;;;;;;-146.25;100.00;52408.75;2078790;28;27451;-71
2023/10/18 00:57:48;;;;;;;25.33;14.50;;;;;;;-146.25;100.00;52461.47;2087140;28;27997;-71
2023/10/18 00:58:52;;;;;;;21.30;13.75;;;;;;;-146.25;100.00;52431.06;2086350;28;32725;-71
2023/10/18 00:59:56;;;;;;;18.85;14.15;;;;;;;-146.25;100.00;52424.97;2079466;28;26845;-71
2023/10/18 01:01:09;;;;;;;22.70;14.25;;;;;;;-146.25;100.00;52427.00;2079215;28;20045;-71
2023/10/18 01:02:13;;;;;;;21.80;14.63;;;;;;;-146.25;100.00;52414.84;2087288;28;25207;-71
2023/10/18 01:03:28;;;;;;;24.02;14.50;;;;;;;-146.25;100.00;52368.19;2085567;28;20097;-71
2023/10/18 01:04:34;;;;;;;22.15;14.05;;;;;;;-146.25;100.00;52412.81;2079122;28;31481;-71
2023/10/18 01:05:59;;;;;;;20.98;14.07;;;;;;;-146.25;100.00;52457.41;2079094;28;20176;-71
2023/10/18 01:07:12;;;;;;;21.08;13.40;;;;;;;-146.25;100.00;52408.75;2082111;28;20228;-71
2023/10/18 01:08:17;;;;;;;17.85;13.18;;;;;;;-146.25;100.00;52479.72;2086115;28;20054;-71
2023/10/18 01:09:20;;;;;;;21.50;13.60;;;;;;;-146.25;100.00;52429.03;2079194;28;24973;-71
2023/10/18 01:10:24;;;;;;;17.65;13.82;;;;;;;-146.25;100.00;52408.75;2087135;28;28368;-71
2023/10/18 01:11:28;;;;;;;21.65;14.18;;;;;;;-146.25;100.00;52429.03;2086546;28;26336;-73
2023/10/18 01:12:30;;;;;;;20.98;14.07;;;;;;;-146.25;100.00;52427.00;2086629;28;28138;-71
2023/10/18 01:13:41;;;;;;;19.90;13.43;;;;;;;-146.25;100.00;52400.63;2086774;28;35903;-71
2023/10/18 01:14:44;;;;;;;19.90;12.88;;;;;;;-146.25;100.00;52422.94;2087228;28;21079;-70
2023/10/18 01:15:48;;;;;;;19.60;13.63;;;;;;;-146.25;100.00;52420.91;2078453;28;33497;-71
2023/10/18 01:16:53;;;;;;;23.45;13.50;;;;;;;-146.25;100.00;52445.25;2079874;28;20470;-71
2023/10/18 01:17:57;;;;;;;19.33;12.95;;;;;;;-146.25;100.00;52420.91;2087320;28;20118;-71
2023/10/18 01:19:04;;;;;;;20.25;13.13;;;;;;;-146.25;100.00;52398.59;2087336;28;20101;-70
2023/10/18 01:21:27;;;;;;;23.15;13.80;;;;;;;-146.25;100.00;52437.13;2084705;28;30437;-71
2023/10/18 01:22:30;;;;;;;20.92;13.10;;;;;;;-146.25;100.00;52473.63;2079088;28;31136;-71
2023/10/18 01:23:33;;;;;;;17.10;13.07;;;;;;;-146.25;100.00;52420.91;2079635;28;20042;-71
2023/10/18 01:24:36;;;;;;;17.67;12.60;;;;;;;-146.25;100.00;52429.03;2079446;28;20963;-71
2023/10/18 01:25:42;;;;;;;20.40;12.70;;;;;;;-146.25;100.00;52439.16;2086922;28;20072;-71
2023/10/18 01:26:46;;;;;;;20.05;12.75;;;;;;;-146.25;100.00;52408.75;2086802;28;25731;-71
2023/10/18 01:27:51;;;;;;;17.67;12.40;;;;;;;-146.25;100.00;52477.69;2086817;28;28962;-71
2023/10/18 01:28:59;;;;;;;17.27;12.13;;;;;;;-146.25;100.00;52420.91;2088173;28;32649;-71
2023/10/18 01:30:04;;;;;;;14.82;11.95;;;;;;;-146.25;100.00;52455.38;2088631;28;20123;-71
2023/10/18 01:31:07;;;;;;;16.48;12.13;;;;;;;-146.25;100.00;52416.84;2080405;28;31722;-70
2023/10/18 01:32:13;;;;;;;18.40;12.25;;;;;;;-146.25;100.00;52437.13;2080622;28;26870;-71
2023/10/18 01:33:15;;;;;;;16.75;12.05;;;;;;;-146.25;100.00;52429.03;2088069;28;27809;-71
2023/10/18 01:34:17;;;;;;;14.30;11.32;;;;;;;-146.25;100.00;52394.56;2080824;28;31578;-70
2023/10/18 01:35:21;;;;;;;15.18;10.93;;;;;;;-146.25;100.00;52433.06;2088310;28;28112;-71
2023/10/18 01:36:28;;;;;;;20.88;12.65;;;;;;;-146.25;100.00;52433.06;2087908;28;21735;-72
2023/10/18 01:37:32;;;;;;;16.33;11.52;;;;;;;-146.25;100.00;52422.94;2087990;28;30158;-71
2023/10/18 01:38:35;;;;;;;15.55;10.70;;;;;;;-146.25;100.00;52416.84;2088362;28;27118;-70
2023/10/18 01:39:37;;;;;;;21.30;11.55;;;;;;;-146.25;100.00;52445.25;2080549;28;25830;-69
2023/10/18 01:40:52;;;;;;;14.23;11.13;;;;;;;-146.25;100.00;52441.19;2080263;28;33044;-72
2023/10/18 01:41:58;;;;;;;16.42;11.00;;;;;;;-146.25;100.00;52441.19;2088349;28;29022;-72
2023/10/18 01:43:01;;;;;;;17.83;10.88;;;;;;;-146.25;100.00;52416.84;2088557;28;20057;-71
2023/10/18 01:44:07;;;;;;;18.10;11.10;;;;;;;-146.25;100.00;52435.09;2088394;28;32010;-72
2023/10/18 01:45:11;;;;;;;18.98;10.18;;;;;;;-146.25;100.00;52457.41;2080251;28;29478;-70
2023/10/18 01:46:13;;;;;;;16.25;10.00;;;;;;;-146.25;100.00;52435.09;2081205;28;20149;-73
2023/10/18 01:47:15;;;;;;;13.70;10.30;;;;;;;-146.25;100.00;52390.50;2088365;28;20191;-70
2023/10/18 01:48:18;;;;;;;16.70;10.25;;;;;;;-146.25;100.00;52429.03;2088438;28;20939;-70
2023/10/18 01:49:21;;;;;;;12.88;9.98;;;;;;;-146.25;100.00;52386.44;2087908;28;26254;-71
2023/10/18 01:50:23;;;;;;;17.90;9.95;;;;;;;-146.25;100.00;52429.03;2080388;28;28936;-71
2023/10/18 01:51:25;;;;;;;12.60;9.20;;;;;;;-146.25;100.00;52435.09;2080712;28;20038;-69
2023/10/18 01:52:29;;;;;;;16.73;8.98;;;;;;;-146.25;100.00;52398.59;2080739;28;24114;-70
2023/10/18 01:53:31;;;;;;;13.65;9.80;;;;;;;-146.25;100.00;52435.09;2088127;28;29867;-72
2023/10/18 01:54:33;;;;;;;13.75;9.43;;;;;;;-146.25;100.00;52439.16;2088336;28;20256;-69
2023/10/18 01:55:36;;;;;;;11.60;8.98;;;;;;;-146.25;100.00;52439.16;2088210;28;28459;-72
2023/10/18 01:56:41;;;;;;;12.93;9.95;;;;;;;-146.25;100.00;52431.06;2088133;28;20049;-70
2023/10/18 01:57:44;;;;;;;13.60;8.73;;;;;;;-146.25;100.00;52453.34;2088397;28;20183;-70
2023/10/18 01:58:48;;;;;;;13.20;9.00;;;;;;;-146.25;100.00;52429.03;2088562;28;20036;-70
2023/10/18 01:59:50;;;;;;;13.13;8.93;;;;;;;-146.25;100.00;52433.06;2079588;28;20505;-70
2023/10/18 02:00:56;;;;;;;16.27;9.30;;;;;;;-146.25;100.00;52386.44;2079532;28;20049;-71
2023/10/18 02:01:58;;;;;;;11.60;8.48;;;;;;;-146.25;100.00;52443.22;2080657;28;20054;-70
2023/10/18 02:03:02;;;;;;;14.38;9.38;;;;;;;-146.25;100.00;52467.56;2087853;28;31252;-70
2023/10/18 02:04:11;;;;;;;13.63;8.48;;;;;;;-146.25;100.00;52412.81;2088707;28;20054;-70
2023/10/18 02:05:17;;;;;;;15.07;8.55;;;;;;;-146.25;100.00;52445.25;2088415;28;32223;-71
2023/10/18 02:06:20;;;;;;;12.43;9.10;;;;;;;-146.25;100.00;52414.84;2087648;28;21579;-71
2023/10/18 02:07:23;;;;;;;13.30;8.65;;;;;;;-146.25;100.00;52431.06;2087616;28;29714;-71
2023/10/18 02:08:24;;;;;;;11.48;9.00;;;;;;;-146.25;100.00;52433.06;2089062;28;20037;-70
2023/10/18 02:09:36;;;;;;;13.27;9.07;;;;;;;-146.25;100.00;52447.28;2088382;28;33714;-71
2023/10/18 02:10:42;;;;;;;12.93;7.97;;;;;;;-146.25;100.00;52424.97;2088958;28;23078;-71
2023/10/18 02:11:43;;;;;;;14.55;8.75;;;;;;;-146.25;100.00;52376.31;2096443;28;29332;-71
2023/10/18 02:12:45;;;;;;;11.15;9.07;;;;;;;-146.25;100.00;52394.56;2096100;28;20079;-71
2023/10/18 02:13:50;;;;;;;13.02;9.02;;;;;;;-146.25;100.00;52453.34;2088580;28;20087;-70
2023/10/18 02:14:52;;;;;;;15.18;9.00;;;;;;;-146.25;100.00;52420.91;2088491;28;26783;-70
2023/10/18 02:15:54;;;;;;;13.30;8.50;;;;;;;-146.25;100.00;52388.47;2096005;28;36105;-71
2023/10/18 02:16:55;;;;;;;12.30;8.52;;;;;;;-146.25;100.00;52412.81;2096200;28;28190;-71
2023/10/18 02:17:57;;;;;;;13.27;8.70;;;;;;;-146.25;100.00;52406.72;2080296;28;27284;-71
2023/10/18 02:18:59;;;;;;;13.05;8.43;;;;;;;-146.25;100.00;52416.84;2079693;28;28929;-71
2023/10/18 02:20:02;;;;;;;13.50;8.75;;;;;;;-146.25;100.00;52451.31;2088147;28;20050;-70
2023/10/18 02:21:08;;;;;;;11.50;8.13;;;;;;;-146.25;100.00;52457.41;2096480;28;20765;-71
2023/10/18 02:22:13;;;;;;;15.55;8.35;;;;;;;-146.25;100.00;52420.91;2095161;28;29556;-70
2023/10/18 02:23:16;;;;;;;15.10;8.50;;;;;;;-146.25;100.00;52429.03;2088343;28;25802;-71
2023/10/18 02:24:20;;;;;;;9.93;8.13;;;;;;;-146.25;100.00;52455.38;2088438;28;20041;-71
2023/10/18 02:25:42;;;;;;;12.50;8.82;;;;;;;-146.25;100.00;52439.16;2088677;28;27406;-70
2023/10/18 02:26:53;;;;;;;11.90;7.95;;;;;;;-146.25;100.00;52441.19;2088147;28;20151;-71
2023/10/18 02:27:55;;;;;;;12.55;8.57;;;;;;;-146.25;100.00;52441.19;2087800;28;33217;-71
2023/10/18 02:29:05;;;;;;;12.35;8.50;;;;;;;-146.25;100.00;52449.31;2088589;28;20029;-70
2023/10/18 02:30:11;;;;;;;12.07;8.68;;;;;;;-146.25;100.00;52435.09;2088047;28;20162;-70
2023/10/18 02:31:21;;;;;;;11.98;8.63;;;;;;;-146.25;100.00;52420.91;2088052;28;20851;-71
2023/10/18 02:32:23;;;;;;;14.82;8.90;;;;;;;-146.25;100.00;52420.91;2087834;28;28948;-71
2023/10/18 02:33:42;;;;;;;12.40;8.23;;;;;;;-146.25;100.00;52457.41;2087227;28;32164;-71
2023/10/18 02:34:47;;;;;;;11.90;9.13;;;;;;;-146.25;100.00;52418.88;2080749;28;20081;-70
2023/10/18 02:35:51;;;;;;;12.80;8.75;;;;;;;-146.25;100.00;52435.09;2080182;28;28214;-71
2023/10/18 02:36:53;;;;;;;14.18;8.80;;;;;;;-146.25;100.00;52427.00;2080333;28;29178;-71
2023/10/18 02:37:54;;;;;;;15.50;8.52;;;;;;;-146.25;100.00;52455.38;2088185;28;20048;-71
2023/10/18 02:38:56;;;;;;;16.35;9.25;;;;;;;-146.25;100.00;52416.84;2087452;28;31385;-70
2023/10/18 02:40:07;;;;;;;16.52;9.82;;;;;;;-146.25;100.00;52441.19;2079965;28;20136;-71
2023/10/18 02:41:20;;;;;;;12.48;8.25;;;;;;;-146.25;100.00;52408.75;2087840;28;20038;-71
2023/10/18 02:42:24;;;;;;;12.98;8.80;;;;;;;-146.25;100.00;52431.06;2088297;28;27082;-70
2023/10/18 02:43:28;;;;;;;17.05;8.98;;;;;;;-146.25;100.00;52475.66;2087142;28;30278;-71
2023/10/18 02:44:34;;;;;;;15.98;8.90;;;;;;;-146.25;100.00;52437.13;2079851;28;30468;-70
2023/10/18 02:45:39;;;;;;;14.52;9.13;;;;;;;-146.25;100.00;52435.09;2080861;28;20094;-70
2023/10/18 02:46:43;;;;;;;15.90;10.00;;;;;;;-146.25;100.00;52422.94;2087439;28;31798;-70
2023/10/18 02:47:51;;;;;;;15.45;9.20;;;;;;;-146.25;100.00;52441.19;2087655;28;26238;-70
2023/10/18 02:48:54;;;;;;;13.13;9.02;;;;;;;-146.25;100.00;52437.13;2088295;28;20793;-71
2023/10/18 02:49:56;;;;;;;13.50;8.70;;;;;;;-146.25;100.00;52459.44;2087472;28;25733;-71
2023/10/18 02:50:58;;;;;;;18.48;9.38;;;;;;;-146.25;100.00;52406.72;2087875;28;25527;-70
2023/10/18 02:52:02;;;;;;;13.55;9.30;;;;;;;-146.25;100.00;52429.03;2087394;28;26441;-70
2023/10/18 02:53:06;;;;;;;13.02;9.23;;;;;;;-146.25;100.00;52408.75;2087908;28;20046;-70
2023/10/18 02:54:10;;;;;;;12.50;9.10;;;;;;;-146.25;100.00;52449.31;2087483;28;28510;-70
2023/10/18 02:55:18;;;;;;;13.30;9.02;;;;;;;-146.25;100.00;52418.88;2088271;28;20872;-70
2023/10/18 02:56:33;;;;;;;12.90;8.95;;;;;;;-146.25;100.00;52437.13;2079263;28;25418;-70
2023/10/18 02:57:34;;;;;;;12.38;8.45;;;;;;;-146.25;100.00;52429.03;2079674;28;25876;-71
2023/10/18 02:58:38;;;;;;;11.98;8.15;;;;;;;-146.25;100.00;52431.06;2088060;28;34123;-70
2023/10/18 02:59:41;;;;;;;12.02;8.63;;;;;;;-146.25;100.00;52402.66;2086985;28;32499;-71
2023/10/18 03:00:44;;;;;;;12.10;8.50;;;;;;;-146.25;100.00;52433.06;2087988;28;20928;-71
2023/10/18 03:01:48;;;;;;;15.05;9.00;;;;;;;-146.25;100.00;52424.97;2087102;28;31316;-71
2023/10/18 03:02:50;;;;;;;12.65;8.90;;;;;;;-146.25;100.00;52402.66;2079887;28;27292;-71
2023/10/18 03:03:55;;;;;;;13.20;9.75;;;;;;;-146.25;100.00;52420.91;2080198;28;32543;-71
2023/10/18 03:04:56;;;;;;;13.35;8.95;;;;;;;-146.25;100.00;52465.53;2088043;28;31967;-71
2023/10/18 03:06:14;;;;;;;15.82;9.00;;;;;;;-146.25;100.00;52427.00;2087554;28;28964;-71
2023/10/18 03:07:15;;;;;;;13.25;9.07;;;;;;;-146.25;100.00;52447.28;2080369;28;20176;-70
2023/10/18 03:08:20;;;;;;;15.30;9.52;;;;;;;-146.25;100.00;52457.41;2080339;28;25072;-71
2023/10/18 03:10:44;;;;;;;13.70;8.70;;;;;;;-146.25;100.00;52459.44;2088408;28;20033;-71
2023/10/18 03:11:47;;;;;;;15.77;9.77;;;;;;;-146.25;100.00;52412.81;2088189;28;20034;-71
2023/10/18 03:12:49;;;;;;;16.13;9.10;;;;;;;-146.25;100.00;52465.53;2087465;28;30271;-71
2023/10/18 03:13:51;;;;;;;16.73;9.73;;;;;;;-146.25;100.00;52390.50;2080398;28;24198;-69
2023/10/18 03:14:54;;;;;;;15.55;9.63;;;;;;;-146.25;100.00;52437.13;2087775;28;20167;-71
2023/10/18 03:17:35;;;;;;;13.20;8.85;;;;;;;-146.25;100.00;52420.91;2072814;28;20112;-71
2023/10/18 03:18:38;;;;;;;13.00;9.40;;;;;;;-146.25;100.00;52439.16;2083624;28;20042;-69
2023/10/18 03:19:49;;;;;;;12.13;9.23;;;;;;;-146.25;100.00;52445.25;2079648;28;30455;-70
2023/10/18 03:20:58;;;;;;;13.80;9.60;;;;;;;-146.25;100.00;52453.34;2088053;28;20112;-71
2023/10/18 03:22:03;;;;;;;12.45;9.25;;;;;;;-146.25;100.00;52447.28;2087804;28;20218;-72
2023/10/18 03:23:07;;;;;;;14.30;9.07;;;;;;;-146.25;100.00;52437.13;2087097;28;33098;-71
2023/10/18 03:24:12;;;;;;;12.43;9.23;;;;;;;-146.25;100.00;52418.88;2087294;28;23207;-69
2023/10/18 03:25:16;;;;;;;15.30;8.98;;;;;;;-146.25;100.00;52469.56;2087480;28;25725;-70
2023/10/18 03:26:23;;;;;;;15.82;9.48;;;;;;;-146.25;100.00;52433.06;2087559;28;20131;-70
2023/10/18 03:27:32;;;;;;;14.82;9.02;;;;;;;-146.25;100.00;52433.06;2079856;28;27841;-71
2023/10/18 03:28:35;;;;;;;11.95;8.88;;;;;;;-146.25;100.00;52402.66;2080872;28;20042;-71
2023/10/18 03:29:37;;;;;;;14.63;9.57;;;;;;;-146.25;100.00;52441.19;2087820;28;20048;-70
2023/10/18 03:30:45;;;;;;;12.93;8.60;;;;;;;-146.25;100.00;52420.91;2087203;28;28243;-71
2023/10/18 03:31:50;;;;;;;15.25;8.68;;;;;;;-146.25;100.00;52453.34;2087844;28;20041;-72
2023/10/18 03:32:54;;;;;;;15.43;9.70;;;;;;;-146.25;100.00;52414.84;2087798;28;20959;-71
2023/10/18 03:34:02;;;;;;;15.13;8.93;;;;;;;-146.25;100.00;52420.91;2079719;28;29561;-72
2023/10/18 03:35:09;;;;;;;16.40;10.05;;;;;;;-146.25;100.00;52483.78;2079669;28;34932;-72
2023/10/18 03:36:26;;;;;;;14.00;10.20;;;;;;;-146.25;100.00;52437.13;2080664;28;20042;-72
2023/10/18 03:37:27;;;;;;;14.05;9.60;;;;;;;-146.25;100.00;52441.19;2080249;28;26179;-71
2023/10/18 03:38:33;;;;;;;14.00;9.70;;;;;;;-146.25;100.00;52422.94;2087280;28;29568;-72
2023/10/18 03:39:35;;;;;;;18.98;9.77;;;;;;;-146.25;100.00;52408.75;2086513;28;28580;-71
2023/10/18 03:40:37;;;;;;;14.98;9.82;;;;;;;-146.25;100.00;52453.34;2080100;28;27645;-71
2023/10/18 03:41:42;;;;;;;16.63;9.85;;;;;;;-146.25;100.00;52465.53;2080136;28;20034;-71
2023/10/18 03:42:45;;;;;;;16.30;10.10;;;;;;;-146.25;100.00;52424.97;2087589;28;20837;-72
2023/10/18 03:43:49;;;;;;;15.15;10.20;;;;;;;-146.25;100.00;52431.06;2087656;28;20045;-71
2023/10/18 03:44:54;;;;;;;16.25;10.20;;;;;;;-146.25;100.00;52433.06;2079639;28;20084;-71
2023/10/18 03:46:17;;;;;;;17.52;10.15;;;;;;;-146.25;100.00;52473.63;2079455;28;20871;-72
2023/10/18 03:47:24;;;;;;;16.42;10.35;;;;;;;-146.25;100.00;52424.97;2085257;28;20037;-70
2023/10/18 03:48:27;;;;;;;16.98;10.48;;;;;;;-146.25;100.00;52418.88;2087363;28;20054;-72
2023/10/18 03:49:36;;;;;;;21.45;10.80;;;;;;;-146.25;100.00;52422.94;2087480;28;20148;-72
2023/10/18 03:50:41;;;;;;;16.48;10.98;;;;;;;-146.25;100.00;52420.91;2086490;28;29900;-70
2023/10/18 03:51:49;;;;;;;16.65;11.25;;;;;;;-146.25;100.00;52447.28;2086577;28;20068;-70
2023/10/18 03:52:52;;;;;;;18.00;11.25;;;;;;;-146.25;100.00;52420.91;2087830;28;20096;-70
2023/10/18 03:53:56;;;;;;;18.75;11.30;;;;;;;-146.25;100.00;52441.19;2087155;28;20037;-70
2023/10/18 03:55:10;;;;;;;19.55;11.23;;;;;;;-146.25;100.00;52457.41;2087453;28;20176;-71
2023/10/18 03:56:13;;;;;;;18.10;10.85;;;;;;;-146.25;100.00;52433.06;2087712;28;27655;-71
2023/10/18 03:57:16;;;;;;;17.73;11.15;;;;;;;-146.25;100.00;52416.84;2085941;28;20915;-71
2023/10/18 03:58:22;;;;;;;20.15;11.68;;;;;;;-146.25;100.00;52447.28;2079805;28;28413;-70
2023/10/18 03:59:25;;;;;;;17.77;11.82;;;;;;;-146.25;100.00;52459.44;2079528;28;35119;-70
2023/10/18 04:01:35;;;;;;;19.17;12.38;;;;;;;-146.25;100.00;52445.25;2087208;28;35788;-70
2023/10/18 04:02:45;;;;;;;20.35;11.45;;;;;;;-146.25;100.00;52447.28;2088059;28;20146;-70
2023/10/18 04:03:49;;;;;;;19.95;11.63;;;;;;;-146.25;100.00;52441.19;2086347;28;35778;-71
2023/10/18 04:04:58;;;;;;;20.38;12.20;;;;;;;-146.25;100.00;52418.88;2079101;28;32488;-72
2023/10/18 04:06:07;;;;;;;20.63;12.30;;;;;;;-146.25;100.00;52443.22;2080181;28;20148;-71
2023/10/18 04:07:12;;;;;;;22.00;12.05;;;;;;;-146.25;100.00;52459.44;2079528;28;36989;-71
2023/10/18 04:08:14;;;;;;;21.23;12.50;;;;;;;-146.25;100.00;52427.00;2080254;28;20160;-70
2023/10/18 04:09:16;;;;;;;21.15;12.13;;;;;;;-146.25;100.00;52424.97;2079086;28;39062;-70
2023/10/18 04:10:24;;;;;;;18.70;12.32;;;;;;;-146.25;100.00;52455.38;2079717;28;32654;-70
2023/10/18 04:11:28;;;;;;;20.08;12.38;;;;;;;-146.25;100.00;52477.69;2079239;28;30108;-70
2023/10/18 04:12:32;;;;;;;22.08;12.98;;;;;;;-146.25;100.00;52422.94;2080108;28;20859;-71
2023/10/18 04:13:36;;;;;;;20.80;12.88;;;;;;;-146.25;100.00;52441.19;2079412;28;34731;-70
2023/10/18 04:14:37;;;;;;;21.63;12.00;;;;;;;-146.25;100.00;52420.91;2079216;28;36159;-70
2023/10/18 04:15:46;;;;;;;22.48;12.63;;;;;;;-146.25;100.00;52459.44;2079735;28;37195;-70
2023/10/18 04:16:56;;;;;;;20.67;12.10;;;;;;;-146.25;100.00;52429.03;2087256;28;35213;-70
2023/10/18 04:19:19;;;;;;;26.23;13.27;;;;;;;-146.25;100.00;52449.31;2087326;28;37168;-71
2023/10/18 04:21:26;;;;;;;24.75;13.07;;;;;;;-146.25;100.00;52437.13;2087155;28;33819;-71
2023/10/18 04:22:28;;;;;;;25.23;13.65;;;;;;;-146.25;100.00;52429.03;2086736;28;35886;-70
2023/10/18 04:23:30;;;;;;;27.20;13.63;;;;;;;-146.25;100.00;52433.06;2086866;28;34415;-72
2023/10/18 04:24:32;;;;;;;22.17;13.55;;;;;;;-146.25;100.00;52433.06;2086543;28;34218;-71
2023/10/18 04:25:36;;;;;;;24.70;13.85;;;;;;;-146.25;100.00;52424.97;2079300;28;40361;-72
2023/10/18 04:26:40;;;;;;;23.98;14.00;;;;;;;-146.25;100.00;52420.91;2079524;28;33912;-70
2023/10/18 04:27:44;;;;;;;24.75;14.15;;;;;;;-146.25;100.00;52435.09;2079241;28;34202;-70
2023/10/18 04:28:48;;;;;;;24.92;13.57;;;;;;;-146.25;100.00;52441.19;2078975;28;34990;-70
2023/10/18 04:29:55;;;;;;;25.60;14.05;;;;;;;-146.25;100.00;52461.47;2087045;28;26814;-70
2023/10/18 04:31:00;;;;;;;22.20;13.63;;;;;;;-146.25;100.00;52427.00;2086018;28;33996;-71
2023/10/18 04:32:03;;;;;;;26.38;14.07;;;;;;;-146.25;100.00;52445.25;2087405;28;33496;-71
2023/10/18 04:34:18;;;;;;;25.13;14.27;;;;;;;-146.25;100.00;52420.91;2087324;28;37192;-69
2023/10/18 04:35:25;;;;;;;26.33;14.15;;;;;;;-146.25;100.00;52441.19;2085296;28;33458;-70
2023/10/18 04:36:27;;;;;;;28.33;13.95;;;;;;;-146.25;100.00;52449.31;2087228;28;38074;-70
2023/10/18 04:37:32;;;;;;;24.77;14.52;;;;;;;-146.25;100.00;52465.53;2086376;28;20196;-70
2023/10/18 04:38:42;;;;;;;25.85;13.90;;;;;;;-146.25;100.00;52457.41;2087482;28;35234;-71
2023/10/18 04:39:44;;;;;;;29.33;13.88;;;;;;;-146.25;100.00;52451.31;2086801;28;37564;-71
2023/10/18 04:41:08;;;;;;;27.48;14.68;;;;;;;-146.25;100.00;52420.91;2086676;28;34927;-71
2023/10/18 04:42:16;;;;;;;25.17;14.32;;;;;;;-146.25;100.00;52437.13;2086945;28;36774;-71
2023/10/18 04:43:22;;;;;;;30.35;14.85;;;;;;;-146.25;100.00;52445.25;2084150;28;34803;-71
2023/10/18 04:44:24;;;;;;;25.20;14.85;;;;;;;-146.25;100.00;52424.97;2086989;28;36264;-71
2023/10/18 04:45:29;;;;;;;29.17;14.32;;;;;;;-146.25;100.00;52441.19;2085953;28;34606;-71
2023/10/18 04:46:32;;;;;;;27.20;15.57;;;;;;;-146.25;100.00;52416.84;2078925;28;35379;-70
2023/10/18 04:47:34;;;;;;;31.70;15.13;;;;;;;-146.25;100.00;52418.88;2086944;28;36785;-72
2023/10/18 04:50:04;;;;;;;29.58;15.05;;;;;;;-146.25;100.00;52457.41;2080087;28;20880;-72
2023/10/18 04:51:06;;;;;;;26.70;15.02;;;;;;;-146.25;100.00;52451.31;2079835;28;20034;-70
2023/10/18 04:52:20;;;;;;;30.55;16.50;;;;;;;-146.25;100.00;52443.22;2079381;28;34968;-70
2023/10/18 04:53:23;;;;;;;27.58;15.07;;;;;;;-146.25;100.00;52453.34;2079710;28;33812;-72
2023/10/18 04:54:38;;;;;;;29.88;15.30;;;;;;;-146.25;100.00;52465.53;2078917;28;34370;-70
2023/10/18 04:55:46;;;;;;;29.45;15.68;;;;;;;-146.25;100.00;52473.63;2087903;28;20148;-71
2023/10/18 04:56:56;;;;;;;30.08;15.57;;;;;;;-146.25;100.00;52451.31;2086061;28;36746;-70
2023/10/18 04:57:58;;;;;;;30.63;15.00;;;;;;;-146.25;100.00;52422.94;2079392;28;37789;-69
2023/10/18 04:59:06;;;;;;;29.30;15.60;;;;;;;-146.25;100.00;52429.03;2079702;28;20045;-72
2023/10/18 05:00:25;;;;;;;30.42;15.32;;;;;;;-146.25;100.00;52424.97;2079351;28;37229;-70
2023/10/18 05:01:36;;;;;;;35.88;15.93;;;;;;;-146.25;100.00;52461.47;2079446;28;35836;-71
2023/10/18 05:02:38;;;;;;;31.27;15.32;;;;;;;-146.25;100.00;52455.38;2079959;28;35124;-71
2023/10/18 05:03:44;;;;;;;29.25;15.88;;;;;;;-146.25;100.00;52441.19;2088371;28;40346;-71